»·PEaware :: N475RS KVNY-KSAC

N475RS :: KVNY-KSAC

FLIGHT INFORMATION

Flight Status: Arrived
Operator: Privately registered:
United States
More flights under this callsign
Pilot: Aker J. (16898)
Aircraft: GULFSTREAM G-1159C GULFSTREAM 4
(GLF4)
More flights by this aircraft type
Origin: KVNY Van Nuys
United States
Destination: KSAC Sacramento Executive
United States
More flights between these airports :: More routes between these airports
Route: +WLKKR1 CSTRO CZQ LIN
File this flight plan on PilotEdge
Remarks: N475RS
Altitude:
(Current/Filed)
420ft
Speed:
(Current/Filed)
300kts
Departed: 03-Jan-18 02:53 PM
Arrived: 03-Jan-18 03:55 PM
Distance/Time
Traveled:
308nm/1:01
Distance/Time
To Go:
Arrived

Flight Plot

Page will automatically refresh every two minutes.

Flight plan parsing failed; only flown route is shown


Map Options




Map Legend


Flown Route
Filed Route
Departure Airport
Arrival Airport
Navaid (VOR, NDB)
Fix

Horizontal Profiles

Position Reports

Time Latitude Longitude Heading Altitude Ground
Speed
03-Jan-18 14:36 34.197175 -118.490803 270 755ft 0kts
03-Jan-18 14:37 34.197175 -118.490803 270 755ft 0kts
03-Jan-18 14:38 34.197175 -118.490803 270 755ft 0kts
03-Jan-18 14:39 34.197175 -118.490803 270 755ft 0kts
03-Jan-18 14:40 34.197175 -118.490803 270 755ft 0kts
03-Jan-18 14:41 34.197175 -118.490803 270 755ft 0kts
03-Jan-18 14:42 34.197175 -118.490803 270 755ft 0kts
03-Jan-18 14:43 34.197175 -118.490803 270 755ft 0kts
03-Jan-18 14:44 34.197175 -118.490803 270 755ft 0kts
03-Jan-18 14:45 34.197175 -118.490803 270 755ft 0kts
03-Jan-18 14:46 34.197175 -118.490803 270 755ft 0kts
03-Jan-18 14:47 34.197175 -118.490803 270 755ft 0kts
03-Jan-18 14:48 34.197175 -118.490803 270 755ft 0kts
03-Jan-18 14:49 34.197175 -118.490803 270 755ft 0kts
03-Jan-18 14:50 34.197175 -118.490803 270 755ft 0kts
03-Jan-18 14:51 34.197175 -118.490803 270 755ft 0kts
03-Jan-18 14:52 34.197175 -118.490803 270 755ft 0kts
03-Jan-18 14:53 34.197175 -118.490803 270 755ft 0kts
03-Jan-18 14:54 34.197175 -118.490803 270 755ft 0kts
03-Jan-18 14:55 34.197079 -118.490283 309 754ft 3kts
03-Jan-18 14:56 34.204826 -118.491032 354 771ft 40kts
03-Jan-18 14:57 34.215511 -118.492130 354 797ft 31kts
03-Jan-18 14:58 34.218578 -118.492231 37 803ft 0kts
03-Jan-18 14:59 34.216926 -118.491043 176 799ft 61kts
03-Jan-18 15:00 34.175106 -118.513736 222 2034ft 220kts
03-Jan-18 15:01 34.133475 -118.559474 221 3906ft 222kts
03-Jan-18 15:02 34.105916 -118.626485 310 4480ft 272kts
03-Jan-18 15:03 34.167174 -118.637202 354 7011ft 219kts
03-Jan-18 15:04 34.241025 -118.647658 354 8899ft 317kts
03-Jan-18 15:05 34.318123 -118.658169 351 10358ft 244kts
03-Jan-18 15:06 34.383584 -118.667885 352 12737ft 267kts
03-Jan-18 15:07 34.469013 -118.682405 349 15803ft 332kts
03-Jan-18 15:08 34.562238 -118.700525 348 18809ft 352kts
03-Jan-18 15:09 34.660624 -118.719777 347 21815ft 371kts
03-Jan-18 15:10 34.758780 -118.759221 326 23036ft 374kts
03-Jan-18 15:11 34.847552 -118.819182 325 23825ft 370kts
03-Jan-18 15:12 34.939327 -118.882298 325 26009ft 386kts
03-Jan-18 15:13 35.035250 -118.948512 324 29919ft 416kts
03-Jan-18 15:14 35.136626 -119.018634 324 33889ft 440kts
03-Jan-18 15:15 35.244855 -119.093756 325 37861ft 460kts
03-Jan-18 15:16 35.356303 -119.171317 325 41165ft 473kts
03-Jan-18 15:17 35.474943 -119.244876 336 43009ft 491kts
03-Jan-18 15:18 35.603707 -119.297076 337 43071ft 487kts
03-Jan-18 15:19 35.732038 -119.348217 337 43074ft 489kts
03-Jan-18 15:20 35.860460 -119.399544 338 43076ft 488kts
03-Jan-18 15:21 35.993399 -119.452875 338 40745ft 517kts
03-Jan-18 15:22 36.123615 -119.505239 338 38286ft 489kts
03-Jan-18 15:23 36.248846 -119.555818 337 35744ft 466kts
03-Jan-18 15:24 36.368977 -119.604523 337 33214ft 450kts
03-Jan-18 15:25 36.484509 -119.651537 337 30715ft 437kts
03-Jan-18 15:26 36.597084 -119.697459 338 28240ft 425kts
03-Jan-18 15:27 36.707099 -119.742443 338 25760ft 413kts
03-Jan-18 15:28 36.813993 -119.786291 339 23455ft 398kts
03-Jan-18 15:29 36.909585 -119.841722 320 21492ft 372kts
03-Jan-18 15:30 36.988638 -119.919604 315 19520ft 357kts
03-Jan-18 15:31 37.061385 -119.999326 316 18126ft 338kts
03-Jan-18 15:32 37.137709 -120.083231 316 18114ft 372kts
03-Jan-18 15:33 37.214775 -120.167993 316 18098ft 372kts
03-Jan-18 15:34 37.291967 -120.253103 316 18099ft 371kts
03-Jan-18 15:35 37.369158 -120.338451 316 18101ft 371kts
03-Jan-18 15:36 37.446058 -120.423705 316 18106ft 371kts
03-Jan-18 15:37 37.520996 -120.507050 316 16934ft 344kts
03-Jan-18 15:38 37.590184 -120.584251 316 15632ft 333kts
03-Jan-18 15:39 37.657879 -120.659995 316 14357ft 326kts
03-Jan-18 15:40 37.724444 -120.734636 316 13067ft 319kts
03-Jan-18 15:41 37.789512 -120.807766 317 11867ft 311kts
03-Jan-18 15:42 37.853472 -120.879768 317 10882ft 308kts
03-Jan-18 15:43 37.916431 -120.950638 316 9894ft 301kts
03-Jan-18 15:44 37.977933 -121.020117 316 8911ft 297kts
03-Jan-18 15:45 38.025190 -121.100370 283 7566ft 289kts
03-Jan-18 15:46 38.047983 -121.197641 283 5611ft 289kts
03-Jan-18 15:47 38.069723 -121.293669 283 4014ft 271kts
03-Jan-18 15:48 38.088232 -121.375377 283 3995ft 226kts
03-Jan-18 15:49 38.105902 -121.452590 283 3988ft 232kts
03-Jan-18 15:50 38.122708 -121.529375 293 3984ft 221kts
03-Jan-18 15:51 38.147278 -121.601806 293 3990ft 231kts
03-Jan-18 15:52 38.171346 -121.677863 293 3990ft 233kts
03-Jan-18 15:53 38.223193 -121.705586 3 3479ft 231kts
03-Jan-18 15:54 38.285720 -121.696886 36 2292ft 230kts
03-Jan-18 15:55 38.329835 -121.646967 34 2037ft 199kts
03-Jan-18 15:56 38.364224 -121.617671 32 1991ft 169kts
03-Jan-18 15:57 38.410955 -121.578950 32 1997ft 172kts
03-Jan-18 15:58 38.444122 -121.551469 32 1456ft 163kts
03-Jan-18 15:59 38.477233 -121.523990 33 719ft 135kts
03-Jan-18 16:00 38.510985 -121.495901 33 25ft 113kts
03-Jan-18 16:01 38.517951 -121.490137 32 27ft 17kts
03-Jan-18 16:02 38.518654 -121.494733 195 28ft 16kts
03-Jan-18 16:03 38.491080 -121.512481 33 388ft 123kts
03-Jan-18 16:04 38.516948 -121.490852 29 25ft 28kts
03-Jan-18 16:05 38.706957 -121.580073 180 25ft 0kts
03-Jan-18 16:06 38.692390 -121.584540 270 23ft 0kts
03-Jan-18 16:07 38.692390 -121.584540 270 23ft 0kts
03-Jan-18 16:08 38.692394 -121.584421 270 29ft 0kts
03-Jan-18 16:09 38.692402 -121.584428 270 29ft 0kts
03-Jan-18 16:10 38.692399 -121.584505 270 29ft 3kts
03-Jan-18 16:11 38.692404 -121.584859 270 29ft 0kts

Navigation Log

Ident Type
Flight plan parsing failed, navigation log unavailable